WetterOnline ( https://www.wetteronline.de )

Wetter aktuell Erzgebirge/West (in 800m)

Aktuelles Wetter: Carlsfeld (899m)

6-stündlich | Neueste Meldungen
Ortszeit Temperatur Wetter
So, 20.10. 2:00 8.5° C bedeckt
Sa, 19.10. 20:00 8.3° C bedeckt
Sa, 19.10. 14:00 8.5° C bewölkt
Sa, 19.10. 8:00 8.2° C leichter Regen
Sa, 19.10. 2:00 7.5° C wolkig
Fr, 18.10. 20:00 9.5° C bedeckt
Fr, 18.10. 14:00 12.6° C bewölkt
Fr, 18.10. 8:00 9.4° C bedeckt
Ortszeit Temperatur Wetter
So, 20.10. 4:30 8.4° C bedeckt
So, 20.10. 4:20 8.4° C bedeckt
So, 20.10. 4:10 8.4° C bedeckt
So, 20.10. 4:00 8.1° C bewölkt
So, 20.10. 3:50 8.1° C bewölkt
So, 20.10. 3:40 8.0° C bewölkt
So, 20.10. 3:30 8.2° C bedeckt
So, 20.10. 3:00 8.5° C bedeckt
Ortszeit Relative Feuchte Sichtweite
So, 20.10. 2:00 89% 50 km
Sa, 19.10. 20:00 89% 60 km
Sa, 19.10. 14:00 93% 70 km
Sa, 19.10. 8:00 93% 12 km
Sa, 19.10. 2:00 94% 20 km
Fr, 18.10. 20:00 90% 65 km
Fr, 18.10. 14:00 80% 60 km
Fr, 18.10. 8:00 97% 10 km
Ortszeit Relative Feuchte Sichtweite
So, 20.10. 4:30 88% 35 km
So, 20.10. 4:20 88% -
So, 20.10. 4:10 89% -
So, 20.10. 4:00 90% 35 km
So, 20.10. 3:50 90% -
So, 20.10. 3:40 90% -
So, 20.10. 3:30 90% 35 km
So, 20.10. 3:00 89% 40 km
Ortszeit Niederschlagsmenge Niederschlagsart
So, 20.10. 2:00 0.1 l/m2 in 6 Std. Regen
Sa, 19.10. 20:00 3 l/m2 in 12 Std. -
Sa, 19.10. 14:00 3 l/m2 in 6 Std. Regen
Sa, 19.10. 8:00 0.8 l/m2 in 12 Std. Regen
Sa, 19.10. 2:00 0.0 l/m2 in 6 Std. -
Fr, 18.10. 20:00 2 l/m2 in 12 Std. Regen
Fr, 18.10. 14:00 0.0 l/m2 in 6 Std. -
Fr, 18.10. 8:00 0.3 l/m2 in 12 Std. Regen
Ortszeit Niederschlagsmenge Niederschlagsart
So, 20.10. 4:30 0.0 l/m2 in 1 Std. -
So, 20.10. 4:20 keine Meldung -
So, 20.10. 4:10 keine Meldung -
So, 20.10. 4:00 0.0 l/m2 in 1 Std. -
So, 20.10. 3:50 keine Meldung -
So, 20.10. 3:40 keine Meldung -
So, 20.10. 3:30 0.0 l/m2 in 1 Std. -
So, 20.10. 3:00 0.0 l/m2 in 1 Std. -
Ortszeit Stärke Spitze Richtung
km/h Bft. km/h Grad Sektor
So, 20.10. 2:00 7 2 29 230° SW
Sa, 19.10. 20:00 14 3 32 180° S
Sa, 19.10. 14:00 17 3 33 220° SW
Sa, 19.10. 8:00 14 3 43 210° SW
Sa, 19.10. 2:00 7 2 31 240° SW
Fr, 18.10. 20:00 14 3 40 250° W
Fr, 18.10. 14:00 13 3 33 220° SW
Fr, 18.10. 8:00 11 2 29 240° SW
Ortszeit Stärke Spitze Richtung
km/h Bft. km/h Grad Sektor
So, 20.10. 4:30 9 2 20 220° SW
So, 20.10. 4:20 9 2 - 220° SW
So, 20.10. 4:10 9 2 - 210° SW
So, 20.10. 4:00 9 2 19 200° S
So, 20.10. 3:50 9 2 - 200° S
So, 20.10. 3:40 11 2 - 190° S
So, 20.10. 3:30 7 2 18 200° S
So, 20.10. 3:00 7 2 14 220° SW
Ortszeit Untergrenze Bedeckung Gattung
total tief tief mittel hoch
So, 20.10. 2:00 4200 m 8/8 8/8 - - -
Sa, 19.10. 20:00 3000 m 8/8 8/8 - - -
Sa, 19.10. 14:00 210 m 7/8 7/8 - - -
Sa, 19.10. 8:00 1350 m 7/8 7/8 - - -
Sa, 19.10. 2:00 180 m 8/8 2/8 - - -
Fr, 18.10. 20:00 300 m 8/8 8/8 - - -
Fr, 18.10. 14:00 360 m 7/8 6/8 - - -
Fr, 18.10. 8:00 90 m 8/8 8/8 - - -
Ortszeit Bedeckungsgrad in Achtel und Wolkenuntergrenze
So, 20.10. 4:30 8(3300m)
So, 20.10. 4:20 8(3300m)
So, 20.10. 4:10 8(3300m)
So, 20.10. 4:00 5(3300m) 7(3900m) 7(4500m)
So, 20.10. 3:50 5(3300m) 7(3900m) 7(4500m)
So, 20.10. 3:40 3(3000m) 7(3900m) 7(4500m)
So, 20.10. 3:30 5(3000m) 8(6600m) 8(6900m)
So, 20.10. 3:00 7(3000m) 8(6600m) 8(7500m)
Ortszeit Stationsdruck (hPa) Tendenz (hPa in 3 Std.)
So, 20.10. 2:00 909 + 0,1
Sa, 19.10. 20:00 908 - 0,3
Sa, 19.10. 14:00 909 - 0,3
Sa, 19.10. 8:00 909 + 0,1
Sa, 19.10. 2:00 910 + 0,2
Fr, 18.10. 20:00 910 + 1,3
Fr, 18.10. 14:00 910 - 1,3
Fr, 18.10. 8:00 911 + 0,1
Ortszeit Stationsdruck (hPa) Tendenz (hPa in 3 Std.)
So, 20.10. 4:30 909 - 0,1
So, 20.10. 4:20 909 keine Meldung
So, 20.10. 4:10 909 keine Meldung
So, 20.10. 4:00 909 - 0,6
So, 20.10. 3:50 909 keine Meldung
So, 20.10. 3:40 909 keine Meldung
So, 20.10. 3:30 909 - 0,6
So, 20.10. 3:00 909 - 0,5
Ortszeit Schneehöhe (cm)
So, 20.10. 2:00 0
Sa, 19.10. 20:00 0
Sa, 19.10. 14:00 0
Sa, 19.10. 8:00 0
Sa, 19.10. 2:00 0
Fr, 18.10. 20:00 0
Fr, 18.10. 14:00 0
Fr, 18.10. 8:00 0
Ortszeit Schneehöhe (cm)
So, 20.10. 4:30 0
So, 20.10. 4:20 0
So, 20.10. 4:10 0
So, 20.10. 4:00 0
So, 20.10. 3:50 0
So, 20.10. 3:40 0
So, 20.10. 3:30 0
So, 20.10. 3:00 0
Link zu dieser Seite / Seite empfehlen

Das Wetter in ...